sensor_id;sensor_type;location;lat;lon;timestamp;P1;durP1;ratioP1;P2;durP2;ratioP2
25531;SDS011;13429;48.816;9.118;2023-02-12T00:01:48;37.38;;;19.92;;
25531;SDS011;13429;48.816;9.118;2023-02-12T00:04:14;32.45;;;19.13;;
25531;SDS011;13429;48.816;9.118;2023-02-12T00:06:41;32.10;;;19.80;;
25531;SDS011;13429;48.816;9.118;2023-02-12T00:09:07;30.38;;;18.10;;
25531;SDS011;13429;48.816;9.118;2023-02-12T00:11:33;32.20;;;20.17;;
25531;SDS011;13429;48.816;9.118;2023-02-12T00:14:00;34.50;;;19.45;;
25531;SDS011;13429;48.816;9.118;2023-02-12T00:16:26;33.20;;;18.40;;
25531;SDS011;13429;48.816;9.118;2023-02-12T00:18:53;30.27;;;17.35;;
25531;SDS011;13429;48.816;9.118;2023-02-12T00:21:20;30.80;;;17.52;;
25531;SDS011;13429;48.816;9.118;2023-02-12T00:23:47;29.92;;;17.85;;
25531;SDS011;13429;48.816;9.118;2023-02-12T00:26:14;32.75;;;19.17;;
25531;SDS011;13429;48.816;9.118;2023-02-12T00:28:40;30.23;;;18.42;;
25531;SDS011;13429;48.816;9.118;2023-02-12T00:31:07;31.98;;;19.05;;
25531;SDS011;13429;48.816;9.118;2023-02-12T00:33:33;30.05;;;18.23;;
25531;SDS011;13429;48.816;9.118;2023-02-12T00:35:59;31.90;;;18.83;;
25531;SDS011;13429;48.816;9.118;2023-02-12T00:38:25;27.35;;;16.60;;
25531;SDS011;13429;48.816;9.118;2023-02-12T00:40:51;31.77;;;17.98;;
25531;SDS011;13429;48.816;9.118;2023-02-12T00:43:17;30.45;;;17.00;;
25531;SDS011;13429;48.816;9.118;2023-02-12T00:45:44;30.33;;;18.58;;
25531;SDS011;13429;48.816;9.118;2023-02-12T00:48:10;32.05;;;20.00;;
25531;SDS011;13429;48.816;9.118;2023-02-12T00:50:36;30.67;;;18.65;;
25531;SDS011;13429;48.816;9.118;2023-02-12T00:53:02;30.85;;;18.77;;
25531;SDS011;13429;48.816;9.118;2023-02-12T00:55:28;34.80;;;20.50;;
25531;SDS011;13429;48.816;9.118;2023-02-12T00:57:57;34.65;;;19.55;;
25531;SDS011;13429;48.816;9.118;2023-02-12T01:00:23;30.30;;;17.75;;
25531;SDS011;13429;48.816;9.118;2023-02-12T01:02:49;30.33;;;17.02;;
25531;SDS011;13429;48.816;9.118;2023-02-12T01:05:15;29.33;;;17.90;;
25531;SDS011;13429;48.816;9.118;2023-02-12T01:07:41;30.85;;;17.95;;
25531;SDS011;13429;48.816;9.118;2023-02-12T01:10:07;25.65;;;15.85;;
25531;SDS011;13429;48.816;9.118;2023-02-12T01:12:34;30.73;;;17.88;;
25531;SDS011;13429;48.816;9.118;2023-02-12T01:15:00;32.13;;;18.88;;
25531;SDS011;13429;48.816;9.118;2023-02-12T01:17:26;32.20;;;18.70;;
25531;SDS011;13429;48.816;9.118;2023-02-12T01:19:55;32.55;;;18.35;;
25531;SDS011;13429;48.816;9.118;2023-02-12T01:22:21;32.80;;;19.63;;
25531;SDS011;13429;48.816;9.118;2023-02-12T01:24:47;32.50;;;17.92;;
25531;SDS011;13429;48.816;9.118;2023-02-12T01:27:14;30.35;;;17.80;;
25531;SDS011;13429;48.816;9.118;2023-02-12T01:29:40;30.67;;;17.80;;
25531;SDS011;13429;48.816;9.118;2023-02-12T01:32:08;30.77;;;17.80;;
25531;SDS011;13429;48.816;9.118;2023-02-12T01:34:35;28.33;;;17.50;;
25531;SDS011;13429;48.816;9.118;2023-02-12T01:37:01;29.92;;;18.92;;
25531;SDS011;13429;48.816;9.118;2023-02-12T01:39:27;33.53;;;18.73;;
25531;SDS011;13429;48.816;9.118;2023-02-12T01:41:53;33.72;;;18.80;;
25531;SDS011;13429;48.816;9.118;2023-02-12T01:44:20;31.55;;;19.00;;
25531;SDS011;13429;48.816;9.118;2023-02-12T01:46:53;36.05;;;18.85;;
25531;SDS011;13429;48.816;9.118;2023-02-12T01:52:00;34.33;;;19.23;;
25531;SDS011;13429;48.816;9.118;2023-02-12T01:54:27;29.98;;;19.20;;
25531;SDS011;13429;48.816;9.118;2023-02-12T01:56:53;35.25;;;18.95;;
25531;SDS011;13429;48.816;9.118;2023-02-12T01:59:20;30.85;;;18.52;;
25531;SDS011;13429;48.816;9.118;2023-02-12T02:01:46;30.38;;;18.40;;
25531;SDS011;13429;48.816;9.118;2023-02-12T02:04:14;29.13;;;17.95;;
25531;SDS011;13429;48.816;9.118;2023-02-12T02:06:44;33.80;;;17.80;;
25531;SDS011;13429;48.816;9.118;2023-02-12T02:09:12;37.00;;;18.73;;
25531;SDS011;13429;48.816;9.118;2023-02-12T02:11:38;36.58;;;19.20;;
25531;SDS011;13429;48.816;9.118;2023-02-12T02:14:23;36.00;;;20.15;;
25531;SDS011;13429;48.816;9.118;2023-02-12T02:27:38;36.63;;;18.85;;
25531;SDS011;13429;48.816;9.118;2023-02-12T02:41:16;35.90;;;21.55;;
25531;SDS011;13429;48.816;9.118;2023-02-12T02:43:27;35.30;;;20.27;;
25531;SDS011;13429;48.816;9.118;2023-02-12T02:45:54;35.17;;;19.55;;
25531;SDS011;13429;48.816;9.118;2023-02-12T02:48:28;33.08;;;20.45;;
25531;SDS011;13429;48.816;9.118;2023-02-12T02:50:58;32.65;;;19.15;;
25531;SDS011;13429;48.816;9.118;2023-02-12T02:53:48;34.05;;;18.77;;
25531;SDS011;13429;48.816;9.118;2023-02-12T02:56:13;31.75;;;20.23;;
25531;SDS011;13429;48.816;9.118;2023-02-12T02:58:43;34.90;;;20.40;;
25531;SDS011;13429;48.816;9.118;2023-02-12T03:01:12;37.95;;;21.42;;
25531;SDS011;13429;48.816;9.118;2023-02-12T03:03:59;35.15;;;20.00;;
25531;SDS011;13429;48.816;9.118;2023-02-12T03:06:35;33.63;;;19.77;;
25531;SDS011;13429;48.816;9.118;2023-02-12T03:09:21;35.38;;;19.30;;
25531;SDS011;13429;48.816;9.118;2023-02-12T03:11:48;34.85;;;19.35;;
25531;SDS011;13429;48.816;9.118;2023-02-12T03:19:15;31.05;;;17.52;;
25531;SDS011;13429;48.816;9.118;2023-02-12T03:21:45;29.40;;;18.40;;
25531;SDS011;13429;48.816;9.118;2023-02-12T03:24:15;31.88;;;17.77;;
25531;SDS011;13429;48.816;9.118;2023-02-12T03:26:45;30.08;;;17.48;;
25531;SDS011;13429;48.816;9.118;2023-02-12T03:29:12;24.98;;;16.30;;
25531;SDS011;13429;48.816;9.118;2023-02-12T03:39:32;27.98;;;16.77;;
25531;SDS011;13429;48.816;9.118;2023-02-12T03:49:23;27.20;;;16.58;;
25531;SDS011;13429;48.816;9.118;2023-02-12T03:51:51;27.70;;;17.23;;
25531;SDS011;13429;48.816;9.118;2023-02-12T03:54:18;31.55;;;18.40;;
25531;SDS011;13429;48.816;9.118;2023-02-12T03:56:46;29.10;;;17.00;;
25531;SDS011;13429;48.816;9.118;2023-02-12T04:01:42;32.72;;;18.50;;
25531;SDS011;13429;48.816;9.118;2023-02-12T04:04:09;28.27;;;17.48;;
25531;SDS011;13429;48.816;9.118;2023-02-12T04:06:35;31.50;;;19.20;;
25531;SDS011;13429;48.816;9.118;2023-02-12T04:09:03;30.25;;;17.42;;
25531;SDS011;13429;48.816;9.118;2023-02-12T04:11:36;30.85;;;17.55;;
25531;SDS011;13429;48.816;9.118;2023-02-12T04:17:02;30.00;;;16.85;;
25531;SDS011;13429;48.816;9.118;2023-02-12T04:19:36;28.65;;;16.30;;
25531;SDS011;13429;48.816;9.118;2023-02-12T04:22:10;32.92;;;17.35;;
25531;SDS011;13429;48.816;9.118;2023-02-12T04:24:42;30.02;;;17.42;;
25531;SDS011;13429;48.816;9.118;2023-02-12T04:29:41;38.67;;;18.80;;
25531;SDS011;13429;48.816;9.118;2023-02-12T04:34:44;41.58;;;24.38;;
25531;SDS011;13429;48.816;9.118;2023-02-12T04:37:24;41.70;;;25.00;;
25531;SDS011;13429;48.816;9.118;2023-02-12T04:39:51;43.58;;;25.00;;
25531;SDS011;13429;48.816;9.118;2023-02-12T04:42:18;45.58;;;24.63;;
25531;SDS011;13429;48.816;9.118;2023-02-12T04:44:44;39.50;;;22.58;;
25531;SDS011;13429;48.816;9.118;2023-02-12T04:47:11;34.97;;;21.08;;
25531;SDS011;13429;48.816;9.118;2023-02-12T04:49:37;34.35;;;20.25;;
25531;SDS011;13429;48.816;9.118;2023-02-12T04:52:03;36.60;;;19.30;;
25531;SDS011;13429;48.816;9.118;2023-02-12T04:54:29;37.63;;;22.38;;
25531;SDS011;13429;48.816;9.118;2023-02-12T04:56:55;43.85;;;25.92;;
25531;SDS011;13429;48.816;9.118;2023-02-12T04:59:21;44.33;;;26.38;;
25531;SDS011;13429;48.816;9.118;2023-02-12T05:01:47;46.30;;;27.48;;
25531;SDS011;13429;48.816;9.118;2023-02-12T05:04:14;46.90;;;27.65;;
25531;SDS011;13429;48.816;9.118;2023-02-12T05:06:41;45.72;;;27.92;;
25531;SDS011;13429;48.816;9.118;2023-02-12T05:09:07;48.33;;;27.67;;
25531;SDS011;13429;48.816;9.118;2023-02-12T05:11:33;48.03;;;27.77;;
25531;SDS011;13429;48.816;9.118;2023-02-12T05:13:59;46.90;;;27.52;;
25531;SDS011;13429;48.816;9.118;2023-02-12T05:16:26;48.85;;;28.58;;
25531;SDS011;13429;48.816;9.118;2023-02-12T05:18:52;48.92;;;27.80;;
25531;SDS011;13429;48.816;9.118;2023-02-12T05:21:18;47.65;;;28.05;;
25531;SDS011;13429;48.816;9.118;2023-02-12T05:23:44;48.10;;;29.25;;
25531;SDS011;13429;48.816;9.118;2023-02-12T05:26:15;52.63;;;28.80;;
25531;SDS011;13429;48.816;9.118;2023-02-12T05:28:41;48.80;;;29.05;;
25531;SDS011;13429;48.816;9.118;2023-02-12T05:31:08;46.30;;;29.08;;
25531;SDS011;13429;48.816;9.118;2023-02-12T05:33:34;49.40;;;29.15;;
25531;SDS011;13429;48.816;9.118;2023-02-12T05:36:08;49.08;;;28.70;;
25531;SDS011;13429;48.816;9.118;2023-02-12T05:38:35;50.13;;;28.58;;
25531;SDS011;13429;48.816;9.118;2023-02-12T05:41:05;46.95;;;26.40;;
25531;SDS011;13429;48.816;9.118;2023-02-12T05:43:31;47.97;;;27.45;;
25531;SDS011;13429;48.816;9.118;2023-02-12T05:45:58;48.50;;;28.02;;
25531;SDS011;13429;48.816;9.118;2023-02-12T05:48:24;50.65;;;28.83;;
25531;SDS011;13429;48.816;9.118;2023-02-12T05:50:50;51.85;;;29.02;;
25531;SDS011;13429;48.816;9.118;2023-02-12T05:53:17;43.45;;;27.42;;
25531;SDS011;13429;48.816;9.118;2023-02-12T05:55:43;45.03;;;27.13;;
25531;SDS011;13429;48.816;9.118;2023-02-12T05:58:09;45.10;;;26.25;;
25531;SDS011;13429;48.816;9.118;2023-02-12T06:00:35;46.33;;;27.10;;
25531;SDS011;13429;48.816;9.118;2023-02-12T06:03:01;44.83;;;27.00;;
25531;SDS011;13429;48.816;9.118;2023-02-12T06:05:27;42.90;;;26.20;;
25531;SDS011;13429;48.816;9.118;2023-02-12T06:07:53;43.63;;;25.98;;
25531;SDS011;13429;48.816;9.118;2023-02-12T06:10:19;45.40;;;25.92;;
25531;SDS011;13429;48.816;9.118;2023-02-12T06:12:45;46.75;;;26.73;;
25531;SDS011;13429;48.816;9.118;2023-02-12T06:15:11;45.15;;;26.65;;
25531;SDS011;13429;48.816;9.118;2023-02-12T06:17:37;46.28;;;26.77;;
25531;SDS011;13429;48.816;9.118;2023-02-12T06:20:03;48.40;;;27.65;;
25531;SDS011;13429;48.816;9.118;2023-02-12T06:22:29;45.40;;;27.40;;
25531;SDS011;13429;48.816;9.118;2023-02-12T06:24:55;43.35;;;26.33;;
25531;SDS011;13429;48.816;9.118;2023-02-12T06:27:21;44.63;;;26.33;;
25531;SDS011;13429;48.816;9.118;2023-02-12T06:29:47;44.13;;;26.58;;
25531;SDS011;13429;48.816;9.118;2023-02-12T06:32:13;41.20;;;26.30;;
25531;SDS011;13429;48.816;9.118;2023-02-12T06:34:39;44.47;;;26.88;;
25531;SDS011;13429;48.816;9.118;2023-02-12T06:37:05;42.22;;;25.95;;
25531;SDS011;13429;48.816;9.118;2023-02-12T06:39:31;44.45;;;26.52;;
25531;SDS011;13429;48.816;9.118;2023-02-12T06:41:57;46.38;;;26.63;;
25531;SDS011;13429;48.816;9.118;2023-02-12T06:44:23;43.58;;;27.23;;
25531;SDS011;13429;48.816;9.118;2023-02-12T06:46:49;49.70;;;27.67;;
25531;SDS011;13429;48.816;9.118;2023-02-12T06:49:15;46.15;;;28.17;;
25531;SDS011;13429;48.816;9.118;2023-02-12T06:51:41;43.97;;;27.10;;
25531;SDS011;13429;48.816;9.118;2023-02-12T06:54:11;49.55;;;29.00;;
25531;SDS011;13429;48.816;9.118;2023-02-12T06:56:37;44.73;;;27.43;;
25531;SDS011;13429;48.816;9.118;2023-02-12T06:59:03;53.13;;;29.02;;
25531;SDS011;13429;48.816;9.118;2023-02-12T07:01:29;43.35;;;27.13;;
25531;SDS011;13429;48.816;9.118;2023-02-12T07:03:57;52.97;;;27.90;;
25531;SDS011;13429;48.816;9.118;2023-02-12T07:06:23;47.25;;;28.45;;
25531;SDS011;13429;48.816;9.118;2023-02-12T07:08:50;48.45;;;28.90;;
25531;SDS011;13429;48.816;9.118;2023-02-12T07:11:16;57.35;;;36.92;;
25531;SDS011;13429;48.816;9.118;2023-02-12T07:13:43;47.50;;;29.58;;
25531;SDS011;13429;48.816;9.118;2023-02-12T07:16:10;55.13;;;31.33;;
25531;SDS011;13429;48.816;9.118;2023-02-12T07:18:37;49.72;;;29.52;;
25531;SDS011;13429;48.816;9.118;2023-02-12T07:21:03;48.08;;;28.75;;
25531;SDS011;13429;48.816;9.118;2023-02-12T07:23:30;50.28;;;28.75;;
25531;SDS011;13429;48.816;9.118;2023-02-12T07:25:57;50.92;;;28.63;;
25531;SDS011;13429;48.816;9.118;2023-02-12T07:28:23;49.50;;;29.05;;
25531;SDS011;13429;48.816;9.118;2023-02-12T07:30:49;44.35;;;28.65;;
25531;SDS011;13429;48.816;9.118;2023-02-12T07:33:15;48.53;;;29.90;;
25531;SDS011;13429;48.816;9.118;2023-02-12T07:35:41;52.35;;;31.20;;
25531;SDS011;13429;48.816;9.118;2023-02-12T07:38:07;50.72;;;30.48;;
25531;SDS011;13429;48.816;9.118;2023-02-12T07:40:34;50.97;;;31.45;;
25531;SDS011;13429;48.816;9.118;2023-02-12T07:43:00;55.67;;;31.25;;
25531;SDS011;13429;48.816;9.118;2023-02-12T07:45:26;46.13;;;28.70;;
25531;SDS011;13429;48.816;9.118;2023-02-12T07:47:52;51.80;;;29.80;;
25531;SDS011;13429;48.816;9.118;2023-02-12T07:50:18;48.10;;;28.98;;
25531;SDS011;13429;48.816;9.118;2023-02-12T07:52:44;51.70;;;30.15;;
25531;SDS011;13429;48.816;9.118;2023-02-12T07:55:10;53.40;;;30.92;;
25531;SDS011;13429;48.816;9.118;2023-02-12T07:57:36;51.88;;;30.20;;
25531;SDS011;13429;48.816;9.118;2023-02-12T08:00:03;53.65;;;29.17;;
25531;SDS011;13429;48.816;9.118;2023-02-12T08:02:29;54.20;;;28.70;;
25531;SDS011;13429;48.816;9.118;2023-02-12T08:04:55;50.33;;;31.92;;
25531;SDS011;13429;48.816;9.118;2023-02-12T08:07:22;63.20;;;34.67;;
25531;SDS011;13429;48.816;9.118;2023-02-12T08:09:48;50.50;;;30.88;;
25531;SDS011;13429;48.816;9.118;2023-02-12T08:12:15;51.22;;;29.58;;
25531;SDS011;13429;48.816;9.118;2023-02-12T08:14:41;50.30;;;30.02;;
25531;SDS011;13429;48.816;9.118;2023-02-12T08:17:07;49.53;;;28.60;;
25531;SDS011;13429;48.816;9.118;2023-02-12T08:19:33;48.65;;;28.27;;
25531;SDS011;13429;48.816;9.118;2023-02-12T08:21:59;57.15;;;31.92;;
25531;SDS011;13429;48.816;9.118;2023-02-12T08:24:30;53.45;;;32.03;;
25531;SDS011;13429;48.816;9.118;2023-02-12T08:26:56;65.43;;;37.70;;
25531;SDS011;13429;48.816;9.118;2023-02-12T08:29:23;59.50;;;35.85;;
25531;SDS011;13429;48.816;9.118;2023-02-12T08:31:50;58.15;;;33.00;;
25531;SDS011;13429;48.816;9.118;2023-02-12T08:34:21;57.05;;;29.98;;
25531;SDS011;13429;48.816;9.118;2023-02-12T08:36:48;54.03;;;30.50;;
25531;SDS011;13429;48.816;9.118;2023-02-12T08:39:14;55.83;;;31.95;;
25531;SDS011;13429;48.816;9.118;2023-02-12T08:41:40;50.58;;;30.33;;
25531;SDS011;13429;48.816;9.118;2023-02-12T08:44:07;49.00;;;29.23;;
25531;SDS011;13429;48.816;9.118;2023-02-12T08:46:34;47.70;;;28.35;;
25531;SDS011;13429;48.816;9.118;2023-02-12T08:49:01;52.97;;;30.35;;
25531;SDS011;13429;48.816;9.118;2023-02-12T08:51:32;48.78;;;29.48;;
25531;SDS011;13429;48.816;9.118;2023-02-12T08:54:00;50.45;;;28.48;;
25531;SDS011;13429;48.816;9.118;2023-02-12T08:56:27;52.03;;;30.73;;
25531;SDS011;13429;48.816;9.118;2023-02-12T08:58:56;52.22;;;28.95;;
25531;SDS011;13429;48.816;9.118;2023-02-12T09:01:23;49.15;;;29.58;;
25531;SDS011;13429;48.816;9.118;2023-02-12T09:03:50;53.58;;;29.88;;
25531;SDS011;13429;48.816;9.118;2023-02-12T09:06:18;49.70;;;29.73;;
25531;SDS011;13429;48.816;9.118;2023-02-12T09:08:44;43.92;;;28.73;;
25531;SDS011;13429;48.816;9.118;2023-02-12T09:11:14;54.53;;;31.13;;
25531;SDS011;13429;48.816;9.118;2023-02-12T09:13:41;49.92;;;29.55;;
25531;SDS011;13429;48.816;9.118;2023-02-12T09:16:07;52.05;;;30.27;;
25531;SDS011;13429;48.816;9.118;2023-02-12T09:18:33;52.75;;;31.05;;
25531;SDS011;13429;48.816;9.118;2023-02-12T09:21:00;53.63;;;32.33;;
25531;SDS011;13429;48.816;9.118;2023-02-12T09:23:26;57.25;;;34.15;;
25531;SDS011;13429;48.816;9.118;2023-02-12T09:25:53;49.35;;;28.85;;
25531;SDS011;13429;48.816;9.118;2023-02-12T09:28:19;53.83;;;30.95;;
25531;SDS011;13429;48.816;9.118;2023-02-12T09:30:45;49.35;;;28.80;;
25531;SDS011;13429;48.816;9.118;2023-02-12T09:33:11;55.30;;;31.35;;
25531;SDS011;13429;48.816;9.118;2023-02-12T09:35:37;60.22;;;32.13;;
25531;SDS011;13429;48.816;9.118;2023-02-12T09:38:03;56.13;;;31.98;;
25531;SDS011;13429;48.816;9.118;2023-02-12T09:40:31;88.47;;;46.03;;
25531;SDS011;13429;48.816;9.118;2023-02-12T09:43:22;62.28;;;35.08;;
25531;SDS011;13429;48.816;9.118;2023-02-12T09:48:35;54.88;;;31.15;;
25531;SDS011;13429;48.816;9.118;2023-02-12T09:51:03;142.73;;;65.72;;
25531;SDS011;13429;48.816;9.118;2023-02-12T09:53:31;73.85;;;42.22;;
25531;SDS011;13429;48.816;9.118;2023-02-12T09:56:00;46.03;;;26.13;;
25531;SDS011;13429;48.816;9.118;2023-02-12T09:58:37;39.80;;;25.65;;
25531;SDS011;13429;48.816;9.118;2023-02-12T10:01:11;38.85;;;23.95;;
25531;SDS011;13429;48.816;9.118;2023-02-12T10:03:38;38.35;;;21.42;;
25531;SDS011;13429;48.816;9.118;2023-02-12T10:06:06;37.35;;;21.83;;
25531;SDS011;13429;48.816;9.118;2023-02-12T10:24:10;23.05;;;14.80;;
25531;SDS011;13429;48.816;9.118;2023-02-12T10:26:48;29.65;;;16.98;;
25531;SDS011;13429;48.816;9.118;2023-02-12T10:29:16;30.98;;;18.73;;
25531;SDS011;13429;48.816;9.118;2023-02-12T10:31:44;26.90;;;16.40;;
25531;SDS011;13429;48.816;9.118;2023-02-12T10:34:16;23.58;;;13.88;;
25531;SDS011;13429;48.816;9.118;2023-02-12T10:41:40;26.35;;;16.60;;
25531;SDS011;13429;48.816;9.118;2023-02-12T10:44:09;26.02;;;17.10;;
25531;SDS011;13429;48.816;9.118;2023-02-12T10:46:35;26.08;;;15.88;;
25531;SDS011;13429;48.816;9.118;2023-02-12T10:49:02;26.30;;;15.77;;
25531;SDS011;13429;48.816;9.118;2023-02-12T10:53:55;26.10;;;17.08;;
25531;SDS011;13429;48.816;9.118;2023-02-12T10:56:21;26.25;;;16.42;;
25531;SDS011;13429;48.816;9.118;2023-02-12T11:01:31;30.35;;;17.70;;
25531;SDS011;13429;48.816;9.118;2023-02-12T11:03:58;27.67;;;16.75;;
25531;SDS011;13429;48.816;9.118;2023-02-12T11:06:31;30.98;;;17.70;;
25531;SDS011;13429;48.816;9.118;2023-02-12T11:08:57;27.50;;;15.60;;
25531;SDS011;13429;48.816;9.118;2023-02-12T11:11:28;25.98;;;15.90;;
25531;SDS011;13429;48.816;9.118;2023-02-12T11:14:13;29.90;;;17.67;;
25531;SDS011;13429;48.816;9.118;2023-02-12T11:19:18;26.77;;;15.20;;
25531;SDS011;13429;48.816;9.118;2023-02-12T11:21:45;26.27;;;14.98;;
25531;SDS011;13429;48.816;9.118;2023-02-12T11:29:38;19.05;;;10.30;;
25531;SDS011;13429;48.816;9.118;2023-02-12T11:32:05;14.07;;;8.15;;
25531;SDS011;13429;48.816;9.118;2023-02-12T11:34:35;18.25;;;9.43;;
25531;SDS011;13429;48.816;9.118;2023-02-12T11:37:02;19.33;;;10.55;;
25531;SDS011;13429;48.816;9.118;2023-02-12T11:39:30;22.02;;;12.45;;
25531;SDS011;13429;48.816;9.118;2023-02-12T11:42:01;13.13;;;7.82;;
25531;SDS011;13429;48.816;9.118;2023-02-12T11:49:22;27.40;;;13.70;;
25531;SDS011;13429;48.816;9.118;2023-02-12T11:51:49;33.00;;;16.67;;
25531;SDS011;13429;48.816;9.118;2023-02-12T11:54:19;14.40;;;8.80;;
25531;SDS011;13429;48.816;9.118;2023-02-12T12:01:50;12.63;;;7.45;;
25531;SDS011;13429;48.816;9.118;2023-02-12T12:04:18;15.55;;;8.80;;
25531;SDS011;13429;48.816;9.118;2023-02-12T12:06:48;9.98;;;6.35;;
25531;SDS011;13429;48.816;9.118;2023-02-12T12:12:22;10.32;;;6.18;;
25531;SDS011;13429;48.816;9.118;2023-02-12T12:14:54;13.18;;;7.97;;
25531;SDS011;13429;48.816;9.118;2023-02-12T12:17:45;12.57;;;7.68;;
25531;SDS011;13429;48.816;9.118;2023-02-12T12:20:34;9.57;;;6.28;;
25531;SDS011;13429;48.816;9.118;2023-02-12T12:25:28;10.82;;;6.40;;
25531;SDS011;13429;48.816;9.118;2023-02-12T12:28:10;12.07;;;6.65;;
25531;SDS011;13429;48.816;9.118;2023-02-12T12:33:43;11.05;;;6.43;;
25531;SDS011;13429;48.816;9.118;2023-02-12T12:38:56;11.07;;;6.78;;
25531;SDS011;13429;48.816;9.118;2023-02-12T12:49:01;8.70;;;6.03;;
25531;SDS011;13429;48.816;9.118;2023-02-12T12:57:01;10.43;;;6.40;;
25531;SDS011;13429;48.816;9.118;2023-02-12T13:07:17;11.35;;;6.38;;
25531;SDS011;13429;48.816;9.118;2023-02-12T13:25:03;9.70;;;5.03;;
25531;SDS011;13429;48.816;9.118;2023-02-12T13:27:34;9.60;;;5.78;;
25531;SDS011;13429;48.816;9.118;2023-02-12T13:30:03;8.65;;;5.50;;
25531;SDS011;13429;48.816;9.118;2023-02-12T13:34:55;10.48;;;7.13;;
25531;SDS011;13429;48.816;9.118;2023-02-12T13:37:38;11.32;;;7.05;;
25531;SDS011;13429;48.816;9.118;2023-02-12T13:40:13;8.50;;;5.32;;
25531;SDS011;13429;48.816;9.118;2023-02-12T13:42:45;9.90;;;5.38;;
25531;SDS011;13429;48.816;9.118;2023-02-12T13:52:54;10.80;;;5.18;;
25531;SDS011;13429;48.816;9.118;2023-02-12T13:55:46;7.80;;;5.18;;
25531;SDS011;13429;48.816;9.118;2023-02-12T14:01:03;9.15;;;5.20;;
25531;SDS011;13429;48.816;9.118;2023-02-12T14:03:31;11.35;;;5.35;;
25531;SDS011;13429;48.816;9.118;2023-02-12T14:06:17;6.88;;;4.63;;
25531;SDS011;13429;48.816;9.118;2023-02-12T14:08:50;8.27;;;5.10;;
25531;SDS011;13429;48.816;9.118;2023-02-12T14:11:17;7.10;;;4.07;;
25531;SDS011;13429;48.816;9.118;2023-02-12T14:14:05;6.32;;;4.55;;
25531;SDS011;13429;48.816;9.118;2023-02-12T14:21:40;7.53;;;4.50;;
25531;SDS011;13429;48.816;9.118;2023-02-12T14:26:52;6.22;;;4.13;;
25531;SDS011;13429;48.816;9.118;2023-02-12T14:29:18;6.38;;;3.33;;
25531;SDS011;13429;48.816;9.118;2023-02-12T14:31:48;8.55;;;4.43;;
25531;SDS011;13429;48.816;9.118;2023-02-12T14:36:42;5.75;;;3.83;;
25531;SDS011;13429;48.816;9.118;2023-02-12T14:39:42;5.38;;;2.88;;
25531;SDS011;13429;48.816;9.118;2023-02-12T14:44:37;5.63;;;2.78;;
25531;SDS011;13429;48.816;9.118;2023-02-12T14:49:53;6.78;;;3.33;;
25531;SDS011;13429;48.816;9.118;2023-02-12T14:52:24;5.60;;;3.35;;
25531;SDS011;13429;48.816;9.118;2023-02-12T14:54:58;4.28;;;2.55;;
25531;SDS011;13429;48.816;9.118;2023-02-12T14:57:26;4.82;;;2.63;;
25531;SDS011;13429;48.816;9.118;2023-02-12T14:59:54;4.85;;;3.00;;
25531;SDS011;13429;48.816;9.118;2023-02-12T15:02:25;5.50;;;3.20;;
25531;SDS011;13429;48.816;9.118;2023-02-12T15:04:52;4.77;;;2.80;;
25531;SDS011;13429;48.816;9.118;2023-02-12T15:07:22;4.32;;;2.63;;
25531;SDS011;13429;48.816;9.118;2023-02-12T15:10:36;5.43;;;2.92;;
25531;SDS011;13429;48.816;9.118;2023-02-12T15:12:41;4.32;;;2.75;;
25531;SDS011;13429;48.816;9.118;2023-02-12T15:15:24;4.85;;;3.08;;
25531;SDS011;13429;48.816;9.118;2023-02-12T15:18:08;5.07;;;2.72;;
25531;SDS011;13429;48.816;9.118;2023-02-12T15:20:49;4.95;;;2.65;;
25531;SDS011;13429;48.816;9.118;2023-02-12T15:26:00;3.15;;;2.25;;
25531;SDS011;13429;48.816;9.118;2023-02-12T15:28:31;3.13;;;2.05;;
25531;SDS011;13429;48.816;9.118;2023-02-12T15:31:00;4.03;;;2.42;;
25531;SDS011;13429;48.816;9.118;2023-02-12T15:33:27;3.22;;;2.30;;
25531;SDS011;13429;48.816;9.118;2023-02-12T15:35:53;4.97;;;2.83;;
25531;SDS011;13429;48.816;9.118;2023-02-12T15:38:20;4.18;;;2.20;;
25531;SDS011;13429;48.816;9.118;2023-02-12T15:40:54;5.07;;;2.17;;
25531;SDS011;13429;48.816;9.118;2023-02-12T15:43:20;3.35;;;2.13;;
25531;SDS011;13429;48.816;9.118;2023-02-12T15:45:50;5.07;;;3.10;;
25531;SDS011;13429;48.816;9.118;2023-02-12T15:48:18;4.70;;;2.78;;
25531;SDS011;13429;48.816;9.118;2023-02-12T15:53:10;4.90;;;2.80;;
25531;SDS011;13429;48.816;9.118;2023-02-12T15:55:38;4.47;;;2.42;;
25531;SDS011;13429;48.816;9.118;2023-02-12T15:58:04;3.90;;;2.28;;
25531;SDS011;13429;48.816;9.118;2023-02-12T16:00:40;5.20;;;2.08;;
25531;SDS011;13429;48.816;9.118;2023-02-12T16:06:09;4.13;;;2.63;;
25531;SDS011;13429;48.816;9.118;2023-02-12T16:08:37;4.35;;;2.40;;
25531;SDS011;13429;48.816;9.118;2023-02-12T16:11:04;2.95;;;2.17;;
25531;SDS011;13429;48.816;9.118;2023-02-12T16:13:44;2.45;;;1.77;;
25531;SDS011;13429;48.816;9.118;2023-02-12T16:18:37;6.38;;;2.50;;
25531;SDS011;13429;48.816;9.118;2023-02-12T16:21:24;6.38;;;3.20;;
25531;SDS011;13429;48.816;9.118;2023-02-12T16:23:49;3.47;;;2.30;;
25531;SDS011;13429;48.816;9.118;2023-02-12T16:26:20;4.18;;;2.58;;
25531;SDS011;13429;48.816;9.118;2023-02-12T16:28:48;4.43;;;2.40;;
25531;SDS011;13429;48.816;9.118;2023-02-12T16:31:14;4.13;;;2.63;;
25531;SDS011;13429;48.816;9.118;2023-02-12T16:33:42;6.03;;;3.00;;
25531;SDS011;13429;48.816;9.118;2023-02-12T16:43:48;8.85;;;2.80;;
25531;SDS011;13429;48.816;9.118;2023-02-12T16:46:15;7.07;;;3.05;;
25531;SDS011;13429;48.816;9.118;2023-02-12T16:48:47;4.55;;;2.75;;
25531;SDS011;13429;48.816;9.118;2023-02-12T16:53:49;22.00;;;13.00;;
25531;SDS011;13429;48.816;9.118;2023-02-12T16:56:18;6.85;;;4.70;;
25531;SDS011;13429;48.816;9.118;2023-02-12T16:58:45;6.03;;;3.85;;
25531;SDS011;13429;48.816;9.118;2023-02-12T17:04:08;7.25;;;3.83;;
25531;SDS011;13429;48.816;9.118;2023-02-12T17:06:38;6.22;;;3.85;;
25531;SDS011;13429;48.816;9.118;2023-02-12T17:09:04;6.28;;;4.05;;
25531;SDS011;13429;48.816;9.118;2023-02-12T17:11:30;7.93;;;4.70;;
25531;SDS011;13429;48.816;9.118;2023-02-12T17:13:56;7.00;;;4.68;;
25531;SDS011;13429;48.816;9.118;2023-02-12T17:16:22;7.55;;;4.50;;
25531;SDS011;13429;48.816;9.118;2023-02-12T17:18:48;7.43;;;5.32;;
25531;SDS011;13429;48.816;9.118;2023-02-12T17:21:33;10.57;;;6.40;;
25531;SDS011;13429;48.816;9.118;2023-02-12T17:24:06;15.23;;;7.90;;
25531;SDS011;13429;48.816;9.118;2023-02-12T17:26:35;19.60;;;10.20;;
25531;SDS011;13429;48.816;9.118;2023-02-12T17:29:01;17.88;;;9.57;;
25531;SDS011;13429;48.816;9.118;2023-02-12T17:31:30;14.57;;;8.82;;
25531;SDS011;13429;48.816;9.118;2023-02-12T17:33:56;12.35;;;8.48;;
25531;SDS011;13429;48.816;9.118;2023-02-12T17:36:22;10.40;;;6.97;;
25531;SDS011;13429;48.816;9.118;2023-02-12T17:38:49;12.27;;;7.20;;
25531;SDS011;13429;48.816;9.118;2023-02-12T17:41:15;10.50;;;6.25;;
25531;SDS011;13429;48.816;9.118;2023-02-12T17:43:41;11.18;;;7.35;;
25531;SDS011;13429;48.816;9.118;2023-02-12T17:46:11;10.73;;;6.55;;
25531;SDS011;13429;48.816;9.118;2023-02-12T17:48:38;13.57;;;7.43;;
25531;SDS011;13429;48.816;9.118;2023-02-12T17:51:04;10.75;;;6.60;;
25531;SDS011;13429;48.816;9.118;2023-02-12T17:53:30;11.57;;;6.95;;
25531;SDS011;13429;48.816;9.118;2023-02-12T17:55:57;11.77;;;7.85;;
25531;SDS011;13429;48.816;9.118;2023-02-12T17:58:23;12.20;;;7.60;;